createdAt,value
2022-10-23T00:01:20.456Z,13.80
2022-10-23T00:02:42.747Z,13.80
2022-10-23T00:04:20.817Z,13.70
2022-10-23T00:05:42.824Z,13.70
2022-10-23T00:07:04.910Z,13.70
2022-10-23T00:08:26.918Z,13.70
2022-10-23T00:09:48.903Z,13.70
2022-10-23T00:11:13.626Z,13.70
2022-10-23T00:12:35.842Z,13.70
2022-10-23T00:14:00.540Z,13.70
2022-10-23T00:15:22.966Z,13.70
2022-10-23T00:16:45.696Z,13.70
2022-10-23T00:18:07.688Z,13.70
2022-10-23T00:19:29.800Z,13.70
2022-10-23T00:20:51.813Z,13.70
2022-10-23T00:22:13.808Z,13.70
2022-10-23T00:23:36.105Z,13.70
2022-10-23T00:24:58.137Z,13.70
2022-10-23T00:26:20.842Z,13.70
2022-10-23T00:27:43.429Z,13.70
2022-10-23T00:29:05.778Z,13.80
2022-10-23T00:30:27.841Z,13.80
2022-10-23T00:31:49.890Z,13.80
2022-10-23T00:33:12.008Z,13.80
2022-10-23T00:34:34.011Z,13.80
2022-10-23T00:35:55.994Z,13.80
2022-10-23T00:37:17.991Z,13.80
2022-10-23T00:38:40.372Z,13.90
2022-10-23T00:40:04.098Z,13.90
2022-10-23T00:41:29.502Z,13.90
2022-10-23T00:42:51.484Z,13.90
2022-10-23T00:44:22.576Z,13.90
2022-10-23T00:45:44.642Z,13.90
2022-10-23T00:47:06.629Z,13.90
2022-10-23T00:48:29.248Z,13.90
2022-10-23T00:49:51.414Z,13.90
2022-10-23T00:51:13.452Z,13.90
2022-10-23T00:52:41.559Z,13.80
2022-10-23T00:54:24.098Z,13.80
2022-10-23T00:55:49.917Z,13.80
2022-10-23T00:57:14.789Z,13.70
2022-10-23T00:58:37.085Z,13.70
2022-10-23T00:59:59.129Z,13.60
2022-10-23T01:01:23.061Z,13.50
2022-10-23T01:02:45.829Z,13.50
2022-10-23T01:04:08.637Z,13.40
2022-10-23T01:06:03.134Z,13.40
2022-10-23T01:07:38.558Z,13.30
2022-10-23T01:09:22.822Z,13.20
2022-10-23T01:10:50.058Z,13.20
2022-10-23T01:12:32.008Z,13.20
2022-10-23T01:14:12.542Z,13.20
2022-10-23T01:15:42.867Z,13.10
2022-10-23T01:17:42.491Z,13.10
2022-10-23T01:19:25.354Z,13.00
2022-10-23T01:20:55.206Z,13.00
2022-10-23T01:24:12.278Z,12.90
2022-10-23T01:25:40.263Z,12.90
2022-10-23T01:27:20.743Z,12.90
2022-10-23T01:28:45.856Z,12.90
2022-10-23T01:30:15.941Z,12.90
2022-10-23T01:31:44.965Z,12.90
2022-10-23T01:33:24.796Z,12.90
2022-10-23T01:34:52.526Z,12.90
2022-10-23T01:36:16.711Z,12.90
2022-10-23T01:37:46.126Z,12.90
2022-10-23T01:39:13.924Z,12.90
2022-10-23T01:41:02.960Z,12.90
2022-10-23T01:42:34.862Z,12.80
2022-10-23T01:44:23.985Z,12.80
2022-10-23T01:45:58.261Z,12.70
2022-10-23T01:47:26.989Z,12.70
2022-10-23T01:48:53.725Z,12.70
2022-10-23T01:50:17.463Z,12.70
2022-10-23T01:51:42.734Z,12.60
2022-10-23T01:53:05.409Z,12.60
2022-10-23T01:54:31.805Z,12.60
2022-10-23T01:55:55.429Z,12.60
2022-10-23T01:57:20.806Z,12.50
2022-10-23T01:58:47.190Z,12.50
2022-10-23T02:00:15.348Z,12.50
2022-10-23T02:01:43.752Z,12.50
2022-10-23T02:03:08.651Z,12.50
2022-10-23T02:04:38.147Z,12.50
2022-10-23T02:06:00.283Z,12.40
2022-10-23T02:07:22.840Z,12.40
2022-10-23T02:08:45.135Z,12.40
2022-10-23T02:10:09.613Z,12.40
2022-10-23T02:11:37.728Z,12.40
2022-10-23T02:13:10.956Z,12.40
2022-10-23T02:15:12.276Z,12.40
2022-10-23T02:16:46.278Z,12.30
2022-10-23T02:18:11.122Z,12.30
2022-10-23T02:19:41.959Z,12.30
2022-10-23T02:21:13.507Z,12.30
2022-10-23T02:22:42.784Z,12.30
2022-10-23T02:24:15.749Z,12.30
2022-10-23T02:25:47.553Z,12.30
2022-10-23T02:27:17.028Z,12.20
2022-10-23T02:30:28.460Z,12.20
2022-10-23T02:31:50.555Z,12.20
2022-10-23T02:33:13.565Z,12.10
2022-10-23T02:34:36.060Z,12.10
2022-10-23T02:35:58.152Z,12.10
2022-10-23T02:38:47.721Z,12.10
2022-10-23T02:40:11.213Z,12.10
2022-10-23T02:41:56.341Z,12.00
2022-10-23T02:43:27.590Z,12.00
2022-10-23T02:45:11.833Z,12.00
2022-10-23T02:46:56.395Z,12.00
2022-10-23T02:48:27.003Z,12.00
2022-10-23T02:50:23.038Z,11.90
2022-10-23T02:52:12.916Z,11.90
2022-10-23T02:54:06.083Z,11.90
2022-10-23T02:55:34.121Z,11.90
2022-10-23T02:57:08.258Z,11.80
2022-10-23T02:58:39.364Z,11.80
2022-10-23T03:00:12.077Z,11.80
2022-10-23T03:02:01.647Z,11.70
2022-10-23T03:03:33.454Z,11.70
2022-10-23T03:04:56.774Z,11.70
2022-10-23T03:06:19.754Z,11.70
2022-10-23T03:07:42.383Z,11.70
2022-10-23T03:09:07.887Z,11.70
2022-10-23T03:10:30.112Z,11.70
2022-10-23T03:11:52.222Z,11.70
2022-10-23T03:13:14.329Z,11.70
2022-10-23T03:14:36.417Z,11.70
2022-10-23T03:15:58.495Z,11.70
2022-10-23T03:17:20.597Z,11.70
2022-10-23T03:18:42.758Z,11.70
2022-10-23T03:20:06.625Z,11.70
2022-10-23T03:21:28.677Z,11.70
2022-10-23T03:22:50.765Z,11.70
2022-10-23T03:24:12.911Z,11.70
2022-10-23T03:25:35.071Z,11.60
2022-10-23T03:26:57.085Z,11.60
2022-10-23T03:28:19.271Z,11.60
2022-10-23T03:29:41.331Z,11.70
2022-10-23T03:31:03.983Z,11.70
2022-10-23T03:32:26.055Z,11.70
2022-10-23T03:33:48.248Z,11.70
2022-10-23T03:35:10.332Z,11.70
2022-10-23T03:36:32.385Z,11.70
2022-10-23T03:37:54.518Z,11.70
2022-10-23T03:39:17.403Z,11.70
2022-10-23T03:40:39.496Z,11.70
2022-10-23T03:42:01.554Z,11.70
2022-10-23T03:43:23.606Z,11.70
2022-10-23T03:44:45.695Z,11.70
2022-10-23T03:46:09.943Z,11.70
2022-10-23T03:47:35.163Z,11.70
2022-10-23T03:48:58.968Z,11.70
2022-10-23T03:50:21.239Z,11.70
2022-10-23T03:51:44.836Z,11.70
2022-10-23T03:53:06.900Z,11.70
2022-10-23T03:54:30.068Z,11.70
2022-10-23T03:55:52.232Z,11.70
2022-10-23T03:57:14.321Z,11.60
2022-10-23T03:58:36.445Z,11.60
2022-10-23T03:59:58.483Z,11.60
2022-10-23T04:01:20.598Z,11.60
2022-10-23T04:02:43.379Z,11.60
2022-10-23T04:04:05.626Z,11.60
2022-10-23T04:05:27.762Z,11.60
2022-10-23T04:06:49.907Z,11.60
2022-10-23T04:08:14.178Z,11.50
2022-10-23T04:09:39.748Z,11.60
2022-10-23T04:11:01.900Z,11.50
2022-10-23T04:12:24.073Z,11.50
2022-10-23T04:13:46.674Z,11.50
2022-10-23T04:15:09.127Z,11.50
2022-10-23T04:16:31.215Z,11.40
2022-10-23T04:17:53.288Z,11.40
2022-10-23T04:19:17.156Z,11.50
2022-10-23T04:20:39.199Z,11.40
2022-10-23T04:22:01.404Z,11.40
2022-10-23T04:23:23.506Z,11.40
2022-10-23T04:24:46.827Z,11.40
2022-10-23T04:26:09.340Z,11.40
2022-10-23T04:27:31.525Z,11.40
2022-10-23T04:28:53.591Z,11.40
2022-10-23T04:30:15.775Z,11.40
2022-10-23T04:31:37.863Z,11.30
2022-10-23T04:32:59.907Z,11.30
2022-10-23T04:34:22.086Z,11.30
2022-10-23T04:35:44.160Z,11.30
2022-10-23T04:37:06.201Z,11.30
2022-10-23T04:38:28.265Z,11.20
2022-10-23T04:39:50.334Z,11.20
2022-10-23T04:41:12.365Z,11.20
2022-10-23T04:42:34.411Z,11.20
2022-10-23T04:43:56.457Z,11.20
2022-10-23T04:45:18.576Z,11.10
2022-10-23T04:46:40.656Z,11.10
2022-10-23T04:48:02.695Z,11.10
2022-10-23T04:49:24.779Z,11.10
2022-10-23T04:50:56.533Z,11.00
2022-10-23T04:52:18.665Z,11.10
2022-10-23T04:53:40.671Z,11.00
2022-10-23T04:55:02.734Z,11.00
2022-10-23T04:56:24.787Z,11.00
2022-10-23T04:57:46.905Z,11.00
2022-10-23T04:59:09.201Z,11.00
2022-10-23T05:00:31.359Z,11.00
2022-10-23T05:01:53.467Z,11.00
2022-10-23T05:03:16.446Z,11.00
2022-10-23T05:04:38.520Z,11.00
2022-10-23T05:06:00.580Z,10.90
2022-10-23T05:07:22.728Z,11.00
2022-10-23T05:08:44.782Z,11.00
2022-10-23T05:10:07.308Z,10.90
2022-10-23T05:11:29.366Z,11.00
2022-10-23T05:12:51.685Z,11.00
2022-10-23T05:14:15.550Z,11.00
2022-10-23T05:15:38.481Z,11.00
2022-10-23T05:17:05.496Z,11.00
2022-10-23T05:18:32.714Z,11.00
2022-10-23T05:19:57.413Z,11.00
2022-10-23T05:21:26.359Z,11.00
2022-10-23T05:22:52.687Z,11.10
2022-10-23T05:24:14.840Z,11.10
2022-10-23T05:25:36.905Z,11.10
2022-10-23T05:26:59.011Z,11.20
2022-10-23T05:28:21.207Z,11.20
2022-10-23T05:29:43.361Z,11.20
2022-10-23T05:31:06.676Z,11.30
2022-10-23T05:32:31.287Z,11.30
2022-10-23T05:33:56.453Z,11.40
2022-10-23T05:35:22.526Z,11.40
2022-10-23T05:36:45.241Z,11.40
2022-10-23T05:38:08.307Z,11.50
2022-10-23T05:39:30.539Z,11.50
2022-10-23T05:40:53.537Z,11.50
2022-10-23T05:42:15.608Z,11.60
2022-10-23T05:43:37.688Z,11.60
2022-10-23T05:44:59.833Z,11.60
2022-10-23T05:46:23.179Z,11.60
2022-10-23T05:47:46.145Z,11.60
2022-10-23T05:49:08.311Z,11.60
2022-10-23T05:50:30.320Z,11.70
2022-10-23T05:51:52.610Z,11.70
2022-10-23T05:53:15.244Z,11.80
2022-10-23T05:54:37.327Z,11.80
2022-10-23T05:56:08.420Z,11.70
2022-10-23T05:57:33.791Z,11.80
2022-10-23T05:58:55.820Z,11.80
2022-10-23T06:00:17.881Z,11.80
2022-10-23T06:01:40.008Z,11.80
2022-10-23T06:03:02.515Z,11.80
2022-10-23T06:04:24.672Z,11.80
2022-10-23T06:05:51.013Z,11.80
2022-10-23T06:07:13.079Z,11.80
2022-10-23T06:08:35.582Z,11.80
2022-10-23T06:09:57.640Z,11.90
2022-10-23T06:11:19.639Z,11.90
2022-10-23T06:12:41.705Z,11.90
2022-10-23T06:14:03.780Z,11.90
2022-10-23T06:15:26.367Z,11.90
2022-10-23T06:16:48.365Z,11.90
2022-10-23T06:18:10.411Z,12.00
2022-10-23T06:19:32.536Z,12.00
2022-10-23T06:20:54.547Z,12.00
2022-10-23T06:22:16.702Z,12.00
2022-10-23T06:23:39.827Z,12.00
2022-10-23T06:25:01.843Z,12.00
2022-10-23T06:26:23.935Z,12.00
2022-10-23T06:27:45.905Z,12.10
2022-10-23T06:29:08.310Z,12.10
2022-10-23T06:30:30.344Z,12.10
2022-10-23T06:31:52.395Z,12.10
2022-10-23T06:33:14.448Z,12.20
2022-10-23T06:34:36.427Z,12.20
2022-10-23T06:35:58.457Z,12.20
2022-10-23T06:37:20.520Z,12.20
2022-10-23T06:38:42.530Z,12.20
2022-10-23T06:40:05.407Z,12.20
2022-10-23T06:41:27.404Z,12.20
2022-10-23T06:42:49.470Z,12.20
2022-10-23T06:44:11.491Z,12.30
2022-10-23T06:45:34.492Z,12.30
2022-10-23T06:46:56.477Z,12.30
2022-10-23T06:48:18.524Z,12.30
2022-10-23T06:49:40.576Z,12.30
2022-10-23T06:51:07.857Z,12.30
2022-10-23T06:52:47.867Z,12.30
2022-10-23T06:55:20.642Z,12.40
2022-10-23T06:56:42.703Z,12.40
2022-10-23T06:58:10.360Z,12.40
2022-10-23T06:59:32.414Z,12.40
2022-10-23T07:00:54.615Z,12.50
2022-10-23T07:02:17.244Z,12.50
2022-10-23T07:03:39.607Z,12.50
2022-10-23T07:05:01.810Z,12.50
2022-10-23T07:06:23.878Z,12.60
2022-10-23T07:07:45.982Z,12.60
2022-10-23T07:09:08.617Z,12.60
2022-10-23T07:10:30.690Z,12.60
2022-10-23T07:11:52.828Z,12.70
2022-10-23T07:13:15.220Z,12.70
2022-10-23T07:14:37.276Z,12.80
2022-10-23T07:15:59.275Z,12.80
2022-10-23T07:17:21.314Z,12.80
2022-10-23T07:18:44.476Z,12.80
2022-10-23T07:20:07.052Z,12.80
2022-10-23T07:21:31.390Z,12.80
2022-10-23T07:22:54.968Z,12.90
2022-10-23T07:24:17.382Z,12.90
2022-10-23T07:25:39.425Z,12.90
2022-10-23T07:27:01.431Z,12.90
2022-10-23T07:28:23.471Z,12.90
2022-10-23T07:29:45.507Z,12.80
2022-10-23T07:31:08.243Z,12.90
2022-10-23T07:32:30.284Z,12.90
2022-10-23T07:33:52.668Z,12.90
2022-10-23T07:36:37.521Z,13.00
2022-10-23T07:38:00.360Z,13.00
2022-10-23T07:39:22.526Z,13.00
2022-10-23T07:40:45.088Z,13.10
2022-10-23T07:42:07.134Z,13.10
2022-10-23T07:43:29.635Z,13.10
2022-10-23T07:44:51.701Z,13.10
2022-10-23T07:46:13.730Z,13.10
2022-10-23T07:47:35.859Z,13.20
2022-10-23T07:48:57.888Z,13.30
2022-10-23T07:50:20.042Z,13.40
2022-10-23T07:51:42.094Z,13.40
2022-10-23T07:53:04.458Z,13.50
2022-10-23T07:54:26.475Z,13.50
2022-10-23T07:56:03.115Z,13.60
2022-10-23T07:57:25.144Z,13.60
2022-10-23T07:58:47.215Z,13.70
2022-10-23T08:00:11.502Z,13.70
2022-10-23T08:01:37.217Z,13.70
2022-10-23T08:02:59.280Z,13.60
2022-10-23T08:04:21.282Z,13.60
2022-10-23T08:05:43.362Z,13.70
2022-10-23T08:07:05.755Z,13.70
2022-10-23T08:08:27.840Z,13.70
2022-10-23T08:09:49.843Z,13.80
2022-10-23T08:11:14.670Z,13.80
2022-10-23T08:12:37.903Z,13.80
2022-10-23T08:14:00.001Z,13.80
2022-10-23T08:15:22.011Z,13.80
2022-10-23T08:16:44.048Z,13.80
2022-10-23T08:18:06.143Z,13.80
2022-10-23T08:19:28.192Z,13.90
2022-10-23T08:20:52.404Z,13.90
2022-10-23T08:22:15.068Z,14.00
2022-10-23T08:23:37.410Z,14.10
2022-10-23T08:24:59.443Z,14.10
2022-10-23T08:26:21.746Z,14.20
2022-10-23T08:27:43.952Z,14.20
2022-10-23T08:29:06.278Z,14.30
2022-10-23T08:30:28.321Z,14.30
2022-10-23T08:31:54.022Z,14.40
2022-10-23T08:33:16.035Z,14.40
2022-10-23T08:34:38.052Z,14.40
2022-10-23T08:36:00.112Z,14.50
2022-10-23T08:37:22.216Z,14.50
2022-10-23T08:38:46.054Z,14.60
2022-10-23T08:40:14.123Z,14.60
2022-10-23T08:41:40.262Z,14.60
2022-10-23T08:43:05.046Z,14.50
2022-10-23T08:44:35.401Z,14.50
2022-10-23T08:46:04.243Z,14.50
2022-10-23T08:47:40.888Z,14.50
2022-10-23T08:49:27.884Z,14.60
2022-10-23T08:50:56.135Z,14.70
2022-10-23T08:52:43.834Z,14.80
2022-10-23T08:54:41.421Z,14.80
2022-10-23T08:56:10.791Z,14.90
2022-10-23T08:57:41.330Z,14.90
2022-10-23T08:59:20.006Z,14.90
2022-10-23T09:00:43.388Z,14.80
2022-10-23T09:02:08.150Z,14.80
2022-10-23T09:03:30.227Z,14.90
2022-10-23T09:04:54.778Z,14.90
2022-10-23T09:06:53.387Z,15.00
2022-10-23T09:08:39.551Z,15.00
2022-10-23T09:10:34.138Z,15.00
2022-10-23T09:12:02.131Z,15.00
2022-10-23T09:13:55.281Z,15.00
2022-10-23T09:15:29.243Z,15.00
2022-10-23T09:18:40.247Z,15.10
2022-10-23T09:20:14.042Z,15.10
2022-10-23T09:21:36.353Z,15.20
2022-10-23T09:23:02.130Z,15.20
2022-10-23T09:24:26.224Z,15.20
2022-10-23T09:25:50.921Z,15.20
2022-10-23T09:27:17.789Z,15.30
2022-10-23T09:28:56.890Z,15.20
2022-10-23T09:30:27.369Z,15.20
2022-10-23T09:31:57.157Z,15.20
2022-10-23T09:33:28.171Z,15.20
2022-10-23T09:34:53.411Z,15.30
2022-10-23T09:36:20.662Z,15.30
2022-10-23T09:37:48.492Z,15.40
2022-10-23T09:39:29.573Z,15.40
2022-10-23T09:40:51.768Z,15.30
2022-10-23T09:42:23.055Z,15.30
2022-10-23T09:43:45.386Z,15.30
2022-10-23T09:45:22.290Z,15.30
2022-10-23T09:46:47.740Z,15.30
2022-10-23T09:48:18.728Z,15.40
2022-10-23T09:49:48.140Z,15.40
2022-10-23T09:51:21.660Z,15.40
2022-10-23T09:52:43.715Z,15.40
2022-10-23T09:54:15.347Z,15.40
2022-10-23T09:55:37.419Z,15.30
2022-10-23T09:57:15.255Z,15.30
2022-10-23T09:58:43.190Z,15.30
2022-10-23T10:00:20.547Z,15.30
2022-10-23T10:01:55.099Z,15.20
2022-10-23T10:03:23.102Z,15.20
2022-10-23T10:04:45.187Z,15.20
2022-10-23T10:06:37.303Z,15.20
2022-10-23T10:08:02.660Z,15.20
2022-10-23T10:09:24.763Z,15.20
2022-10-23T10:10:51.743Z,15.30
2022-10-23T10:12:27.338Z,15.30
2022-10-23T10:14:03.532Z,15.30
2022-10-23T10:15:28.561Z,15.40
2022-10-23T10:17:02.899Z,15.40
2022-10-23T10:18:40.111Z,15.40
2022-10-23T10:20:39.263Z,15.40
2022-10-23T10:22:37.705Z,15.30
2022-10-23T10:24:18.001Z,15.20
2022-10-23T10:26:01.293Z,15.20
2022-10-23T10:27:43.612Z,15.20
2022-10-23T10:29:25.996Z,15.20
2022-10-23T10:30:59.686Z,15.30
2022-10-23T10:32:33.597Z,15.30
2022-10-23T10:34:10.670Z,15.30
2022-10-23T10:35:38.466Z,15.30
2022-10-23T10:37:13.274Z,15.30
2022-10-23T10:38:38.362Z,15.30
2022-10-23T10:40:00.404Z,15.30
2022-10-23T10:41:44.925Z,15.30
2022-10-23T10:43:28.686Z,15.40
2022-10-23T10:45:04.418Z,15.40
2022-10-23T10:46:39.780Z,15.40
2022-10-23T10:48:40.013Z,15.40
2022-10-23T10:50:20.696Z,15.40
2022-10-23T10:52:18.108Z,15.40
2022-10-23T10:54:11.122Z,15.40
2022-10-23T10:55:39.353Z,15.40
2022-10-23T10:57:13.942Z,15.40
2022-10-23T10:58:40.488Z,15.40
2022-10-23T11:00:14.613Z,15.40
2022-10-23T11:01:50.429Z,15.50
2022-10-23T11:03:39.969Z,15.50
2022-10-23T11:05:37.249Z,15.60
2022-10-23T11:07:01.636Z,15.70
2022-10-23T11:08:50.030Z,15.80
2022-10-23T11:10:19.985Z,15.80
2022-10-23T11:11:42.039Z,15.80
2022-10-23T11:13:04.844Z,15.90
2022-10-23T11:14:35.587Z,15.90
2022-10-23T11:16:03.163Z,15.90
2022-10-23T11:17:26.536Z,15.90
2022-10-23T11:19:14.298Z,15.90
2022-10-23T11:21:00.508Z,15.90
2022-10-23T11:22:43.005Z,16.00
2022-10-23T11:24:25.002Z,16.00
2022-10-23T11:25:50.068Z,16.10
2022-10-23T11:27:23.001Z,16.30
2022-10-23T11:28:47.728Z,16.50
2022-10-23T11:30:21.340Z,16.60
2022-10-23T11:32:01.689Z,16.70
2022-10-23T11:33:50.078Z,16.80
2022-10-23T11:35:21.396Z,16.90
2022-10-23T11:37:03.768Z,16.70
2022-10-23T11:38:33.208Z,16.70
2022-10-23T11:40:09.053Z,16.60
2022-10-23T11:41:33.980Z,16.60
2022-10-23T11:42:56.022Z,16.60
2022-10-23T11:44:34.984Z,16.70
2022-10-23T11:45:58.447Z,16.80
2022-10-23T11:47:39.231Z,16.90
2022-10-23T11:49:03.771Z,17.00
2022-10-23T11:50:31.754Z,17.00
2022-10-23T11:52:05.325Z,17.10
2022-10-23T11:53:33.445Z,17.20
2022-10-23T11:55:17.815Z,17.30
2022-10-23T11:56:51.556Z,17.30
2022-10-23T11:58:23.505Z,17.30
2022-10-23T11:59:45.529Z,17.30
2022-10-23T12:01:32.412Z,17.30
2022-10-23T12:02:59.106Z,17.20
2022-10-23T12:04:28.372Z,17.20
2022-10-23T12:06:04.710Z,17.10
2022-10-23T12:07:32.968Z,17.00
2022-10-23T12:08:59.556Z,17.00
2022-10-23T12:10:29.940Z,17.00
2022-10-23T12:12:28.997Z,17.10
2022-10-23T12:13:51.057Z,17.10
2022-10-23T12:15:16.073Z,17.10
2022-10-23T12:16:38.123Z,17.20
2022-10-23T12:18:15.478Z,17.30
2022-10-23T12:19:48.720Z,17.40
2022-10-23T12:21:18.174Z,17.50
2022-10-23T12:22:49.127Z,17.60
2022-10-23T12:24:26.827Z,17.50
2022-10-23T12:26:00.861Z,17.50
2022-10-23T12:27:39.282Z,17.50
2022-10-23T12:29:31.038Z,17.50
2022-10-23T12:31:28.938Z,17.40
2022-10-23T12:32:56.723Z,17.40
2022-10-23T12:34:33.414Z,17.50
2022-10-23T12:35:58.235Z,17.50
2022-10-23T12:37:29.558Z,17.50
2022-10-23T12:38:51.686Z,17.40
2022-10-23T12:40:13.787Z,17.30
2022-10-23T12:41:39.217Z,17.20
2022-10-23T12:43:01.759Z,17.10
2022-10-23T12:44:27.815Z,17.10
2022-10-23T12:45:50.422Z,17.10
2022-10-23T12:47:18.727Z,17.20
2022-10-23T12:48:52.070Z,17.20
2022-10-23T12:50:22.291Z,17.30
2022-10-23T12:51:44.915Z,17.30
2022-10-23T12:53:10.050Z,17.40
2022-10-23T12:54:38.330Z,17.40
2022-10-23T12:56:05.287Z,17.40
2022-10-23T12:57:30.186Z,17.40
2022-10-23T12:59:00.606Z,17.40
2022-10-23T13:00:24.570Z,17.50
2022-10-23T13:01:50.437Z,17.50
2022-10-23T13:03:14.568Z,17.60
2022-10-23T13:04:37.873Z,17.60
2022-10-23T13:06:04.538Z,17.60
2022-10-23T13:07:29.617Z,17.60
2022-10-23T13:08:52.309Z,17.60
2022-10-23T13:10:16.433Z,17.70
2022-10-23T13:11:39.037Z,17.70
2022-10-23T13:13:05.891Z,17.70
2022-10-23T13:14:30.705Z,17.70
2022-10-23T13:15:52.732Z,17.70
2022-10-23T13:17:14.843Z,17.70
2022-10-23T13:18:41.354Z,17.60
2022-10-23T13:20:29.574Z,17.60
2022-10-23T13:21:51.611Z,17.50
2022-10-23T13:23:41.853Z,17.50
2022-10-23T13:25:23.847Z,17.40
2022-10-23T13:26:45.986Z,17.40
2022-10-23T13:28:07.964Z,17.30
2022-10-23T13:29:33.343Z,17.30
2022-10-23T13:31:10.433Z,17.30
2022-10-23T13:32:32.465Z,17.20
2022-10-23T13:34:00.623Z,17.20
2022-10-23T13:35:23.893Z,17.20
2022-10-23T13:36:53.583Z,17.10
2022-10-23T13:38:15.779Z,17.10
2022-10-23T13:39:37.781Z,17.10
2022-10-23T13:41:01.281Z,17.20
2022-10-23T13:42:23.287Z,17.20
2022-10-23T13:43:46.695Z,17.20
2022-10-23T13:45:18.781Z,17.30
2022-10-23T13:46:41.607Z,17.30
2022-10-23T13:48:09.367Z,17.30
2022-10-23T13:49:31.719Z,17.30
2022-10-23T13:50:54.405Z,17.30
2022-10-23T13:52:20.950Z,17.40
2022-10-23T13:53:42.993Z,17.40
2022-10-23T13:55:26.342Z,17.30
2022-10-23T13:56:48.628Z,17.30
2022-10-23T13:58:11.242Z,17.20
2022-10-23T13:59:33.310Z,17.20
2022-10-23T14:00:55.358Z,17.10
2022-10-23T14:02:22.539Z,17.10
2022-10-23T14:03:44.642Z,17.10
2022-10-23T14:05:06.913Z,17.10
2022-10-23T14:06:29.050Z,17.10
2022-10-23T14:07:51.163Z,17.00
2022-10-23T14:09:15.733Z,17.00
2022-10-23T14:10:37.756Z,16.90
2022-10-23T14:11:59.775Z,16.90
2022-10-23T14:13:21.847Z,16.90
2022-10-23T14:14:43.957Z,16.90
2022-10-23T14:16:06.657Z,16.80
2022-10-23T14:17:28.660Z,16.80
2022-10-23T14:18:50.781Z,16.80
2022-10-23T14:20:13.173Z,16.70
2022-10-23T14:21:35.257Z,16.70
2022-10-23T14:22:57.455Z,16.70
2022-10-23T14:24:19.468Z,16.60
2022-10-23T14:25:41.523Z,16.60
2022-10-23T14:27:03.634Z,16.60
2022-10-23T14:28:25.707Z,16.60
2022-10-23T14:29:47.731Z,16.60
2022-10-23T14:31:13.718Z,16.50
2022-10-23T14:32:35.807Z,16.50
2022-10-23T14:34:00.786Z,16.50
2022-10-23T14:35:22.888Z,16.40
2022-10-23T14:36:56.734Z,16.40
2022-10-23T14:38:26.684Z,16.40
2022-10-23T14:39:50.130Z,16.40
2022-10-23T14:41:14.145Z,16.30
2022-10-23T14:42:36.262Z,16.30
2022-10-23T14:43:58.286Z,16.30
2022-10-23T14:45:20.312Z,16.30
2022-10-23T14:46:42.406Z,16.20
2022-10-23T14:48:04.579Z,16.20
2022-10-23T14:49:26.629Z,16.20
2022-10-23T14:50:49.800Z,16.20
2022-10-23T14:52:12.249Z,16.10
2022-10-23T14:53:34.749Z,16.10
2022-10-23T14:54:56.803Z,16.00
2022-10-23T14:56:18.846Z,16.00
2022-10-23T14:57:41.074Z,15.90
2022-10-23T14:59:04.255Z,15.90
2022-10-23T15:00:26.368Z,15.90
2022-10-23T15:01:48.806Z,15.80
2022-10-23T15:03:10.956Z,15.80
2022-10-23T15:04:32.966Z,15.70
2022-10-23T15:05:55.170Z,15.70
2022-10-23T15:07:17.359Z,15.60
2022-10-23T15:08:39.444Z,15.60
2022-10-23T15:10:01.535Z,15.50
2022-10-23T15:11:24.957Z,15.50
2022-10-23T15:12:47.103Z,15.40
2022-10-23T15:14:09.367Z,15.30
2022-10-23T15:15:31.360Z,15.30
2022-10-23T15:16:53.326Z,15.20
2022-10-23T15:18:15.408Z,15.20
2022-10-23T15:19:37.584Z,15.10
2022-10-23T15:21:00.088Z,15.00
2022-10-23T15:22:23.059Z,14.90
2022-10-23T15:23:46.391Z,14.90
2022-10-23T15:25:08.856Z,14.80
2022-10-23T15:26:31.342Z,14.80
2022-10-23T15:27:53.375Z,14.70
2022-10-23T15:29:15.908Z,14.70
2022-10-23T15:30:43.297Z,14.60
2022-10-23T15:32:07.716Z,14.60
2022-10-23T15:33:30.068Z,14.60
2022-10-23T15:34:53.700Z,14.50
2022-10-23T15:36:15.720Z,14.40
2022-10-23T15:37:37.901Z,14.40
2022-10-23T15:39:00.182Z,14.40
2022-10-23T15:40:22.309Z,14.40
2022-10-23T15:41:44.647Z,14.30
2022-10-23T15:43:08.758Z,14.30
2022-10-23T15:44:34.002Z,14.20
2022-10-23T15:45:56.022Z,14.30
2022-10-23T15:47:18.107Z,14.20
2022-10-23T15:48:40.123Z,14.20
2022-10-23T15:50:02.110Z,14.20
2022-10-23T15:51:24.416Z,14.20
2022-10-23T15:52:46.789Z,14.20
2022-10-23T15:54:16.341Z,14.10
2022-10-23T15:55:38.331Z,14.10
2022-10-23T15:57:01.404Z,14.10
2022-10-23T15:58:23.436Z,14.10
2022-10-23T15:59:45.567Z,14.10
2022-10-23T16:01:07.842Z,14.10
2022-10-23T16:02:30.204Z,14.10
2022-10-23T16:03:52.372Z,14.10
2022-10-23T16:05:14.457Z,14.10
2022-10-23T16:06:36.564Z,14.10
2022-10-23T16:07:58.621Z,14.10
2022-10-23T16:09:21.211Z,14.10
2022-10-23T16:10:44.033Z,14.10
2022-10-23T16:12:06.354Z,14.10
2022-10-23T16:13:28.965Z,14.10
2022-10-23T16:14:51.676Z,14.10
2022-10-23T16:16:14.604Z,14.10
2022-10-23T16:17:36.627Z,14.10
2022-10-23T16:19:03.688Z,14.00
2022-10-23T16:20:25.763Z,14.00
2022-10-23T16:21:47.837Z,14.00
2022-10-23T16:23:10.051Z,14.00
2022-10-23T16:24:32.920Z,14.00
2022-10-23T16:25:55.371Z,14.00
2022-10-23T16:27:17.372Z,14.00
2022-10-23T16:28:39.487Z,14.00
2022-10-23T16:30:01.471Z,14.00
2022-10-23T16:31:25.160Z,13.90
2022-10-23T16:32:47.162Z,13.90
2022-10-23T16:34:10.713Z,13.90
2022-10-23T16:35:32.766Z,13.90
2022-10-23T16:36:54.801Z,13.80
2022-10-23T16:38:16.932Z,13.80
2022-10-23T16:39:39.069Z,13.80
2022-10-23T16:41:03.602Z,13.80
2022-10-23T16:42:28.841Z,13.80
2022-10-23T16:43:51.054Z,13.70
2022-10-23T16:45:13.130Z,13.70
2022-10-23T16:46:35.767Z,13.70
2022-10-23T16:47:57.835Z,13.60
2022-10-23T16:49:19.978Z,13.60
2022-10-23T16:50:42.057Z,13.60
2022-10-23T16:52:04.127Z,13.60
2022-10-23T16:53:29.053Z,13.60
2022-10-23T16:54:51.121Z,13.50
2022-10-23T16:56:15.766Z,13.50
2022-10-23T16:57:38.204Z,13.50
2022-10-23T16:59:00.757Z,13.50
2022-10-23T17:00:24.096Z,13.50
2022-10-23T17:01:46.291Z,13.50
2022-10-23T17:03:09.598Z,13.50
2022-10-23T17:04:31.659Z,13.50
2022-10-23T17:05:56.433Z,13.40
2022-10-23T17:07:23.425Z,13.40
2022-10-23T17:08:45.883Z,13.40
2022-10-23T17:10:08.332Z,13.40
2022-10-23T17:11:35.817Z,13.40
2022-10-23T17:12:57.888Z,13.30
2022-10-23T17:14:21.174Z,13.30
2022-10-23T17:15:43.243Z,13.30
2022-10-23T17:17:06.887Z,13.20
2022-10-23T17:18:29.052Z,13.20
2022-10-23T17:19:51.127Z,13.20
2022-10-23T17:21:15.073Z,13.20
2022-10-23T17:22:38.877Z,13.20
2022-10-23T17:25:23.028Z,13.20
2022-10-23T17:26:45.923Z,13.20
2022-10-23T17:28:07.925Z,13.20
2022-10-23T17:29:30.043Z,13.20
2022-10-23T17:30:52.715Z,13.20
2022-10-23T17:32:14.910Z,13.20
2022-10-23T17:33:37.014Z,13.20
2022-10-23T17:34:59.077Z,13.20
2022-10-23T17:36:21.917Z,13.20
2022-10-23T17:37:44.031Z,13.20
2022-10-23T17:39:08.185Z,13.10
2022-10-23T17:40:32.861Z,13.10
2022-10-23T17:41:56.059Z,13.10
2022-10-23T17:43:18.095Z,13.10
2022-10-23T17:44:40.212Z,13.10
2022-10-23T17:46:04.377Z,13.10
2022-10-23T17:47:26.485Z,13.00
2022-10-23T17:48:48.715Z,13.00
2022-10-23T17:50:12.268Z,13.00
2022-10-23T17:51:35.785Z,13.00
2022-10-23T17:52:57.847Z,13.00
2022-10-23T17:54:20.019Z,13.00
2022-10-23T17:55:42.626Z,13.00
2022-10-23T17:57:04.698Z,13.00
2022-10-23T17:58:26.767Z,12.90
2022-10-23T17:59:48.863Z,12.90
2022-10-23T18:01:14.677Z,12.90
2022-10-23T18:02:36.797Z,12.90
2022-10-23T18:04:05.360Z,12.90
2022-10-23T18:05:27.496Z,12.90
2022-10-23T18:06:52.409Z,12.90
2022-10-23T18:08:14.507Z,12.90
2022-10-23T18:09:36.620Z,12.90
2022-10-23T18:10:58.620Z,12.90
2022-10-23T18:12:20.737Z,12.90
2022-10-23T18:13:42.984Z,12.90
2022-10-23T18:15:05.668Z,12.90
2022-10-23T18:16:28.437Z,12.90
2022-10-23T18:17:50.532Z,12.90
2022-10-23T18:19:13.307Z,12.90
2022-10-23T18:20:41.859Z,12.90
2022-10-23T18:22:03.979Z,12.80
2022-10-23T18:23:27.551Z,12.80
2022-10-23T18:24:49.665Z,12.80
2022-10-23T18:26:27.981Z,12.80
2022-10-23T18:27:50.069Z,12.70
2022-10-23T18:29:14.355Z,12.70
2022-10-23T18:32:00.459Z,12.70
2022-10-23T18:33:23.245Z,12.70
2022-10-23T18:34:45.613Z,12.70
2022-10-23T18:36:20.886Z,12.60
2022-10-23T18:37:43.390Z,12.60
2022-10-23T18:39:06.875Z,12.60
2022-10-23T18:40:30.158Z,12.60
2022-10-23T18:41:55.879Z,12.60
2022-10-23T18:43:25.370Z,12.60
2022-10-23T18:45:00.308Z,12.70